CDG2173 ZSAM-ZSZS
Flight info
| Callsign | CDG2173 |
|---|---|
| Flight time | 1h 16m |
| Altitude | 33100 |
| Route | DOVPU W643 FOC W644 IDMUV/K0848S1040 W644 ANLUD/K0843S1010 B221 SHZ W58 BK W67 HSN |
| Aircraft | B738/M-SDE2E3FGHIRWXY/LB1 |
Departure
| Time | 2026-04-29 15:14 |
|---|---|
| Airport | Xiamen Gaoqi International Airport (ZSAM) |
Arrival
| Time | 2026-04-29 16:30 |
|---|---|
| Airport | Zhoushan Putuoshan International Airport (ZSZS) |
| Time | Latitude | Longitude | Altitude | Speed | Heading |
|---|---|---|---|---|---|
| 2026-04-29 15:03 | 24.53662 | 118.12388 | 72 ft | 0 kts | 141° |
| 2026-04-29 15:04 | 24.53672 | 118.12379 | 71 ft | 2 kts | 143° |
| 2026-04-29 15:04 | 24.53685 | 118.12371 | 71 ft | 2 kts | 161° |
| 2026-04-29 15:05 | 24.53700 | 118.12367 | 71 ft | 2 kts | 175° |
| 2026-04-29 15:05 | 24.53715 | 118.12367 | 71 ft | 2 kts | 188° |
| 2026-04-29 15:05 | 24.53730 | 118.12371 | 71 ft | 2 kts | 202° |
| 2026-04-29 15:05 | 24.53743 | 118.12379 | 71 ft | 2 kts | 215° |
| 2026-04-29 15:06 | 24.53754 | 118.12389 | 71 ft | 1 kts | 228° |
| 2026-04-29 15:06 | 24.53758 | 118.12395 | 71 ft | 1 kts | 231° |
| 2026-04-29 15:07 | 24.53753 | 118.12388 | 71 ft | 4 kts | 231° |
| 2026-04-29 15:08 | 24.53721 | 118.12344 | 71 ft | 10 kts | 231° |
| 2026-04-29 15:08 | 24.53657 | 118.12257 | 71 ft | 17 kts | 231° |
| 2026-04-29 15:08 | 24.53616 | 118.12202 | 71 ft | 0 kts | 231° |
| 2026-04-29 15:10 | 24.53606 | 118.12189 | 71 ft | 5 kts | 231° |
| 2026-04-29 15:10 | 24.53566 | 118.12135 | 71 ft | 12 kts | 231° |
| 2026-04-29 15:11 | 24.53567 | 118.12042 | 71 ft | 17 kts | 323° |
| 2026-04-29 15:11 | 24.53600 | 118.11930 | 71 ft | 21 kts | 229° |
| 2026-04-29 15:11 | 24.53509 | 118.11794 | 71 ft | 22 kts | 232° |
| 2026-04-29 15:11 | 24.53468 | 118.11670 | 71 ft | 15 kts | 342° |
| 2026-04-29 15:12 | 24.53533 | 118.11610 | 71 ft | 11 kts | 322° |
| 2026-04-29 15:12 | 24.53598 | 118.11626 | 71 ft | 10 kts | 51° |
| 2026-04-29 15:12 | 24.53646 | 118.11694 | 71 ft | 10 kts | 53° |
| 2026-04-29 15:12 | 24.53692 | 118.11760 | 71 ft | 11 kts | 50° |
| 2026-04-29 15:13 | 24.53790 | 118.11897 | 71 ft | 50 kts | 53° |
| 2026-04-29 15:13 | 24.54143 | 118.12387 | 71 ft | 111 kts | 53° |
| 2026-04-29 15:13 | 24.54728 | 118.13212 | 95 ft | 157 kts | 52° |
| 2026-04-29 15:13 | 24.55377 | 118.14235 | 487 ft | 166 kts | 54° |
| 2026-04-29 15:14 | 24.56114 | 118.15163 | 1152 ft | 166 kts | 47° |
| 2026-04-29 15:14 | 24.56924 | 118.16132 | 1695 ft | 174 kts | 49° |
| 2026-04-29 15:14 | 24.57697 | 118.17206 | 2082 ft | 184 kts | 51° |
| 2026-04-29 15:14 | 24.58514 | 118.18374 | 2288 ft | 202 kts | 52° |
| 2026-04-29 15:15 | 24.59416 | 118.19674 | 2569 ft | 221 kts | 52° |
| 2026-04-29 15:15 | 24.60410 | 118.21063 | 2942 ft | 236 kts | 51° |
| 2026-04-29 15:15 | 24.61459 | 118.22498 | 3326 ft | 251 kts | 49° |
| 2026-04-29 15:15 | 24.62696 | 118.23921 | 3803 ft | 261 kts | 44° |
| 2026-04-29 15:16 | 24.64051 | 118.25288 | 4562 ft | 259 kts | 42° |
| 2026-04-29 15:16 | 24.65404 | 118.26623 | 5221 ft | 260 kts | 42° |
| 2026-04-29 15:16 | 24.66755 | 118.27979 | 5809 ft | 265 kts | 43° |
| 2026-04-29 15:16 | 24.68127 | 118.29376 | 6348 ft | 271 kts | 43° |
| 2026-04-29 15:17 | 24.69514 | 118.30798 | 6908 ft | 277 kts | 42° |
| 2026-04-29 15:17 | 24.70961 | 118.32290 | 7410 ft | 286 kts | 42° |
| 2026-04-29 15:17 | 24.72413 | 118.33785 | 7963 ft | 292 kts | 41° |
| 2026-04-29 15:17 | 24.73919 | 118.35349 | 8541 ft | 298 kts | 42° |
| 2026-04-29 15:18 | 24.75376 | 118.36990 | 9123 ft | 303 kts | 44° |
| 2026-04-29 15:18 | 24.76822 | 118.38719 | 9692 ft | 310 kts | 45° |
| 2026-04-29 15:18 | 24.78293 | 118.40493 | 10153 ft | 321 kts | 45° |
| 2026-04-29 15:18 | 24.79859 | 118.42364 | 10562 ft | 334 kts | 44° |
| 2026-04-29 15:19 | 24.81466 | 118.44269 | 10930 ft | 348 kts | 45° |
| 2026-04-29 15:19 | 24.83166 | 118.46278 | 11282 ft | 363 kts | 45° |
| 2026-04-29 15:19 | 24.84931 | 118.48362 | 11669 ft | 376 kts | 45° |
| 2026-04-29 15:19 | 24.86744 | 118.50502 | 12040 ft | 388 kts | 45° |
| 2026-04-29 15:20 | 24.88614 | 118.52705 | 12436 ft | 399 kts | 45° |
| 2026-04-29 15:20 | 24.90544 | 118.54963 | 12834 ft | 410 kts | 45° |
| 2026-04-29 15:20 | 24.92522 | 118.57275 | 13417 ft | 414 kts | 45° |
| 2026-04-29 15:20 | 24.94499 | 118.59586 | 14111 ft | 415 kts | 45° |
| 2026-04-29 15:21 | 24.96476 | 118.61900 | 14746 ft | 418 kts | 45° |
| 2026-04-29 15:21 | 24.98518 | 118.64293 | 15274 ft | 425 kts | 45° |
| 2026-04-29 15:21 | 25.00533 | 118.66653 | 15813 ft | 430 kts | 45° |
| 2026-04-29 15:21 | 25.02604 | 118.69087 | 16376 ft | 434 kts | 45° |
| 2026-04-29 15:22 | 25.04664 | 118.71506 | 16969 ft | 436 kts | 45° |
| 2026-04-29 15:22 | 25.06760 | 118.73966 | 17525 ft | 438 kts | 45° |
| 2026-04-29 15:22 | 25.08888 | 118.76465 | 18037 ft | 443 kts | 45° |
| 2026-04-29 15:22 | 25.11007 | 118.78955 | 18554 ft | 446 kts | 45° |
| 2026-04-29 15:23 | 25.13140 | 118.81464 | 19066 ft | 449 kts | 45° |
| 2026-04-29 15:23 | 25.15299 | 118.84004 | 19539 ft | 453 kts | 45° |
| 2026-04-29 15:23 | 25.17454 | 118.86542 | 20003 ft | 456 kts | 45° |
| 2026-04-29 15:23 | 25.19638 | 118.89112 | 20476 ft | 460 kts | 45° |
| 2026-04-29 15:24 | 25.21870 | 118.91738 | 20832 ft | 466 kts | 45° |
| 2026-04-29 15:24 | 25.24105 | 118.94371 | 21237 ft | 470 kts | 45° |
| 2026-04-29 15:24 | 25.26384 | 118.97061 | 21685 ft | 473 kts | 45° |
| 2026-04-29 15:24 | 25.28626 | 118.99699 | 22107 ft | 476 kts | 45° |
| 2026-04-29 15:25 | 25.30928 | 119.02386 | 22527 ft | 479 kts | 44° |
| 2026-04-29 15:25 | 25.33258 | 119.05092 | 22858 ft | 484 kts | 44° |
| 2026-04-29 15:25 | 25.35572 | 119.07776 | 23349 ft | 485 kts | 44° |
| 2026-04-29 15:25 | 25.37902 | 119.10485 | 23803 ft | 486 kts | 44° |
| 2026-04-29 15:26 | 25.40249 | 119.13219 | 24299 ft | 488 kts | 45° |
| 2026-04-29 15:26 | 25.42600 | 119.15958 | 24544 ft | 495 kts | 44° |
| 2026-04-29 15:26 | 25.45010 | 119.18762 | 24954 ft | 498 kts | 45° |
| 2026-04-29 15:26 | 25.47400 | 119.21548 | 25462 ft | 498 kts | 45° |
| 2026-04-29 15:27 | 25.49774 | 119.24318 | 25860 ft | 501 kts | 45° |
| 2026-04-29 15:27 | 25.52188 | 119.27140 | 26238 ft | 504 kts | 45° |
| 2026-04-29 15:27 | 25.54594 | 119.29954 | 26599 ft | 507 kts | 45° |
| 2026-04-29 15:27 | 25.57047 | 119.32835 | 26884 ft | 512 kts | 45° |
| 2026-04-29 15:28 | 25.59484 | 119.35707 | 27330 ft | 513 kts | 45° |
| 2026-04-29 15:28 | 25.61943 | 119.38609 | 27704 ft | 515 kts | 45° |
| 2026-04-29 15:28 | 25.64390 | 119.41506 | 28227 ft | 514 kts | 45° |
| 2026-04-29 15:28 | 25.66843 | 119.44415 | 28667 ft | 515 kts | 45° |
| 2026-04-29 15:29 | 25.69315 | 119.47351 | 29040 ft | 517 kts | 45° |
| 2026-04-29 15:29 | 25.74237 | 119.53167 | 29838 ft | 519 kts | 44° |
| 2026-04-29 15:30 | 25.79548 | 119.58558 | 30771 ft | 514 kts | 34° |
| 2026-04-29 15:30 | 25.82493 | 119.60825 | 31283 ft | 509 kts | 28° |
| 2026-04-29 15:30 | 25.85589 | 119.62769 | 32027 ft | 499 kts | 24° |
| 2026-04-29 15:30 | 25.88652 | 119.64439 | 32757 ft | 490 kts | 21° |
| 2026-04-29 15:31 | 25.91770 | 119.66040 | 33168 ft | 488 kts | 21° |
| 2026-04-29 15:31 | 25.97985 | 119.69191 | 33179 ft | 491 kts | 21° |
| 2026-04-29 15:32 | 26.04184 | 119.72417 | 33176 ft | 486 kts | 19° |
| 2026-04-29 15:32 | 26.10739 | 119.74367 | 33175 ft | 478 kts | 0° |
| 2026-04-29 15:33 | 26.17334 | 119.74460 | 33173 ft | 470 kts | 351° |
| 2026-04-29 15:33 | 26.23898 | 119.73980 | 33171 ft | 470 kts | 349° |
| 2026-04-29 15:34 | 26.30526 | 119.73428 | 33242 ft | 477 kts | 349° |
| 2026-04-29 15:34 | 26.33863 | 119.73168 | 33397 ft | 482 kts | 349° |
| 2026-04-29 15:34 | 26.37236 | 119.72918 | 33563 ft | 486 kts | 350° |
| 2026-04-29 15:34 | 26.40622 | 119.72696 | 33725 ft | 491 kts | 352° |
| 2026-04-29 15:35 | 26.44064 | 119.72700 | 33925 ft | 499 kts | 357° |
| 2026-04-29 15:35 | 26.47585 | 119.73068 | 34149 ft | 506 kts | 3° |
| 2026-04-29 15:35 | 26.51112 | 119.73823 | 34348 ft | 513 kts | 9° |
| 2026-04-29 15:35 | 26.54533 | 119.74942 | 34671 ft | 517 kts | 15° |
| 2026-04-29 15:36 | 26.57932 | 119.76450 | 34968 ft | 521 kts | 21° |
| 2026-04-29 15:36 | 26.61206 | 119.78336 | 35165 ft | 524 kts | 29° |
| 2026-04-29 15:36 | 26.64152 | 119.80695 | 35176 ft | 518 kts | 38° |
| 2026-04-29 15:37 | 26.69501 | 119.86005 | 35171 ft | 511 kts | 40° |
| 2026-04-29 15:37 | 26.74978 | 119.91157 | 35172 ft | 512 kts | 36° |
| 2026-04-29 15:38 | 26.80727 | 119.95845 | 35170 ft | 511 kts | 32° |
| 2026-04-29 15:38 | 26.86612 | 120.00211 | 35171 ft | 511 kts | 30° |
| 2026-04-29 15:39 | 26.92634 | 120.04495 | 35170 ft | 512 kts | 29° |
| 2026-04-29 15:39 | 26.98691 | 120.08761 | 35176 ft | 513 kts | 29° |
| 2026-04-29 15:40 | 27.04786 | 120.13061 | 35176 ft | 514 kts | 29° |
| 2026-04-29 15:40 | 27.10833 | 120.17345 | 35171 ft | 513 kts | 29° |
| 2026-04-29 15:41 | 27.16871 | 120.21629 | 35176 ft | 513 kts | 29° |
| 2026-04-29 15:41 | 27.22952 | 120.25919 | 35191 ft | 514 kts | 28° |
| 2026-04-29 15:42 | 27.29080 | 120.30244 | 35192 ft | 513 kts | 29° |
| 2026-04-29 15:42 | 27.35116 | 120.34512 | 35193 ft | 513 kts | 28° |
| 2026-04-29 15:43 | 27.41217 | 120.38832 | 35188 ft | 514 kts | 29° |
| 2026-04-29 15:43 | 27.47272 | 120.43134 | 35193 ft | 516 kts | 29° |
| 2026-04-29 15:44 | 27.53365 | 120.47475 | 35197 ft | 517 kts | 29° |
| 2026-04-29 15:44 | 27.59444 | 120.51817 | 35193 ft | 515 kts | 28° |
| 2026-04-29 15:45 | 27.65579 | 120.56198 | 35196 ft | 518 kts | 28° |
| 2026-04-29 15:45 | 27.71733 | 120.60392 | 35200 ft | 517 kts | 23° |
| 2026-04-29 15:46 | 27.78451 | 120.63096 | 35200 ft | 500 kts | 4° |
| 2026-04-29 15:46 | 27.85357 | 120.64170 | 35206 ft | 498 kts | 358° |
| 2026-04-29 15:47 | 27.92275 | 120.64796 | 35197 ft | 497 kts | 356° |
| 2026-04-29 15:47 | 27.99188 | 120.65340 | 35209 ft | 500 kts | 356° |
| 2026-04-29 15:48 | 28.06127 | 120.65923 | 35203 ft | 498 kts | 357° |
| 2026-04-29 15:48 | 28.12781 | 120.66543 | 35216 ft | 498 kts | 357° |
| 2026-04-29 15:49 | 28.19471 | 120.67193 | 35201 ft | 500 kts | 357° |
| 2026-04-29 15:49 | 28.26319 | 120.67866 | 35208 ft | 502 kts | 357° |
| 2026-04-29 15:50 | 28.33268 | 120.68552 | 35207 ft | 499 kts | 357° |
| 2026-04-29 15:50 | 28.40075 | 120.69226 | 35212 ft | 501 kts | 356° |
| 2026-04-29 15:51 | 28.47039 | 120.69919 | 35205 ft | 501 kts | 357° |
| 2026-04-29 15:51 | 28.53879 | 120.70606 | 35199 ft | 501 kts | 357° |
| 2026-04-29 15:52 | 28.60925 | 120.71313 | 35206 ft | 503 kts | 357° |
| 2026-04-29 15:52 | 28.67899 | 120.72019 | 35212 ft | 503 kts | 357° |
| 2026-04-29 15:53 | 28.74869 | 120.72747 | 35216 ft | 503 kts | 357° |
| 2026-04-29 15:53 | 28.81896 | 120.73521 | 35224 ft | 503 kts | 357° |
| 2026-04-29 15:54 | 28.88910 | 120.74300 | 35221 ft | 501 kts | 357° |
| 2026-04-29 15:54 | 28.95889 | 120.75037 | 35236 ft | 503 kts | 356° |
| 2026-04-29 15:55 | 29.02971 | 120.75759 | 35236 ft | 503 kts | 356° |
| 2026-04-29 15:55 | 29.09955 | 120.76473 | 35234 ft | 504 kts | 356° |
| 2026-04-29 15:56 | 29.16931 | 120.77193 | 35233 ft | 502 kts | 356° |
| 2026-04-29 15:56 | 29.23984 | 120.77914 | 35234 ft | 507 kts | 356° |
| 2026-04-29 15:57 | 29.31027 | 120.78645 | 35237 ft | 502 kts | 356° |
| 2026-04-29 15:57 | 29.38044 | 120.79374 | 35247 ft | 505 kts | 356° |
| 2026-04-29 15:58 | 29.45060 | 120.80100 | 35255 ft | 506 kts | 356° |
| 2026-04-29 15:58 | 29.52100 | 120.80959 | 35259 ft | 511 kts | 1° |
| 2026-04-29 15:58 | 29.55617 | 120.81963 | 35257 ft | 525 kts | 13° |
| 2026-04-29 15:59 | 29.59009 | 120.83828 | 35258 ft | 537 kts | 28° |
| 2026-04-29 15:59 | 29.61975 | 120.86456 | 35264 ft | 545 kts | 41° |
| 2026-04-29 15:59 | 29.64533 | 120.89710 | 35267 ft | 548 kts | 51° |
| 2026-04-29 16:00 | 29.69027 | 120.96841 | 35260 ft | 547 kts | 57° |
| 2026-04-29 16:00 | 29.73207 | 121.04195 | 35253 ft | 547 kts | 58° |
| 2026-04-29 16:01 | 29.77324 | 121.11592 | 35242 ft | 548 kts | 58° |
| 2026-04-29 16:01 | 29.81472 | 121.19004 | 35107 ft | 544 kts | 58° |
| 2026-04-29 16:01 | 29.83522 | 121.22641 | 34556 ft | 542 kts | 57° |
| 2026-04-29 16:02 | 29.85560 | 121.26298 | 33758 ft | 543 kts | 60° |
| 2026-04-29 16:02 | 29.87363 | 121.30112 | 33191 ft | 538 kts | 66° |
| 2026-04-29 16:02 | 29.88741 | 121.34080 | 32692 ft | 529 kts | 77° |
| 2026-04-29 16:02 | 29.89576 | 121.38178 | 32229 ft | 519 kts | 85° |
| 2026-04-29 16:03 | 29.90034 | 121.42353 | 31733 ft | 512 kts | 90° |
| 2026-04-29 16:03 | 29.90296 | 121.46388 | 31214 ft | 507 kts | 92° |
| 2026-04-29 16:03 | 29.90458 | 121.50462 | 30757 ft | 501 kts | 94° |
| 2026-04-29 16:03 | 29.90568 | 121.54456 | 30325 ft | 496 kts | 94° |
| 2026-04-29 16:04 | 29.90661 | 121.58448 | 29748 ft | 495 kts | 94° |
| 2026-04-29 16:04 | 29.90750 | 121.62412 | 29210 ft | 493 kts | 94° |
| 2026-04-29 16:04 | 29.90844 | 121.66323 | 28760 ft | 489 kts | 94° |
| 2026-04-29 16:04 | 29.90949 | 121.70245 | 28418 ft | 481 kts | 94° |
| 2026-04-29 16:05 | 29.91063 | 121.74113 | 27944 ft | 478 kts | 93° |
| 2026-04-29 16:05 | 29.91194 | 121.77930 | 27497 ft | 474 kts | 92° |
| 2026-04-29 16:05 | 29.91342 | 121.81729 | 26979 ft | 472 kts | 92° |
| 2026-04-29 16:05 | 29.91495 | 121.85465 | 26605 ft | 466 kts | 91° |
| 2026-04-29 16:06 | 29.91654 | 121.89214 | 26160 ft | 462 kts | 91° |
| 2026-04-29 16:06 | 29.91809 | 121.92889 | 25709 ft | 458 kts | 91° |
| 2026-04-29 16:06 | 29.91961 | 121.96546 | 25224 ft | 453 kts | 91° |
| 2026-04-29 16:06 | 29.92107 | 122.00120 | 24525 ft | 447 kts | 91° |
| 2026-04-29 16:07 | 29.92244 | 122.03673 | 23862 ft | 440 kts | 91° |
| 2026-04-29 16:07 | 29.92368 | 122.07182 | 23222 ft | 433 kts | 91° |
| 2026-04-29 16:07 | 29.92482 | 122.10590 | 22575 ft | 427 kts | 91° |
| 2026-04-29 16:07 | 29.92591 | 122.14015 | 21871 ft | 422 kts | 90° |
| 2026-04-29 16:08 | 29.92694 | 122.17356 | 21154 ft | 418 kts | 90° |
| 2026-04-29 16:08 | 29.92800 | 122.20716 | 20435 ft | 414 kts | 90° |
| 2026-04-29 16:08 | 29.92906 | 122.23972 | 19875 ft | 405 kts | 90° |
| 2026-04-29 16:08 | 29.93011 | 122.27135 | 19547 ft | 389 kts | 90° |
| 2026-04-29 16:09 | 29.93114 | 122.30226 | 19215 ft | 376 kts | 90° |
| 2026-04-29 16:09 | 29.93211 | 122.33201 | 18917 ft | 362 kts | 90° |
| 2026-04-29 16:09 | 29.93303 | 122.36056 | 18669 ft | 348 kts | 90° |
| 2026-04-29 16:09 | 29.93384 | 122.38812 | 18322 ft | 340 kts | 92° |
| 2026-04-29 16:10 | 29.93232 | 122.41513 | 17790 ft | 335 kts | 106° |
| 2026-04-29 16:10 | 29.92440 | 122.43987 | 17303 ft | 320 kts | 131° |
| 2026-04-29 16:10 | 29.90952 | 122.45760 | 16793 ft | 300 kts | 156° |
| 2026-04-29 16:10 | 29.89145 | 122.46753 | 16311 ft | 284 kts | 172° |
| 2026-04-29 16:11 | 29.87255 | 122.47264 | 15817 ft | 276 kts | 179° |
| 2026-04-29 16:11 | 29.85351 | 122.47530 | 15281 ft | 272 kts | 183° |
| 2026-04-29 16:11 | 29.83470 | 122.47693 | 14807 ft | 268 kts | 184° |
| 2026-04-29 16:11 | 29.81609 | 122.47859 | 14359 ft | 266 kts | 181° |
| 2026-04-29 16:12 | 29.79766 | 122.48197 | 13854 ft | 269 kts | 176° |
| 2026-04-29 16:12 | 29.77888 | 122.48629 | 12970 ft | 283 kts | 176° |
| 2026-04-29 16:12 | 29.75932 | 122.49009 | 12098 ft | 290 kts | 178° |
| 2026-04-29 16:12 | 29.73926 | 122.49297 | 11470 ft | 288 kts | 180° |
| 2026-04-29 16:13 | 29.71970 | 122.49549 | 11104 ft | 277 kts | 180° |
| 2026-04-29 16:13 | 29.70069 | 122.49773 | 10733 ft | 267 kts | 180° |
| 2026-04-29 16:13 | 29.68244 | 122.49983 | 10361 ft | 260 kts | 181° |
| 2026-04-29 16:13 | 29.66460 | 122.50199 | 9988 ft | 254 kts | 179° |
| 2026-04-29 16:14 | 29.64659 | 122.50441 | 9387 ft | 260 kts | 179° |
| 2026-04-29 16:14 | 29.62852 | 122.50648 | 8772 ft | 262 kts | 179° |
| 2026-04-29 16:14 | 29.61031 | 122.50809 | 8165 ft | 265 kts | 180° |
| 2026-04-29 16:14 | 29.59181 | 122.50939 | 7545 ft | 267 kts | 179° |
| 2026-04-29 16:15 | 29.57297 | 122.51034 | 6917 ft | 270 kts | 179° |
| 2026-04-29 16:15 | 29.55407 | 122.51068 | 6343 ft | 270 kts | 181° |
| 2026-04-29 16:15 | 29.53527 | 122.51077 | 5835 ft | 268 kts | 181° |
| 2026-04-29 16:15 | 29.51663 | 122.51072 | 5339 ft | 266 kts | 180° |
| 2026-04-29 16:16 | 29.49843 | 122.51067 | 5038 ft | 256 kts | 180° |
| 2026-04-29 16:16 | 29.48072 | 122.51063 | 4787 ft | 253 kts | 180° |
| 2026-04-29 16:16 | 29.46308 | 122.51057 | 4547 ft | 252 kts | 179° |
| 2026-04-29 16:16 | 29.44572 | 122.50835 | 4265 ft | 253 kts | 201° |
| 2026-04-29 16:17 | 29.43140 | 122.49694 | 3986 ft | 246 kts | 240° |
| 2026-04-29 16:17 | 29.42566 | 122.47897 | 3750 ft | 238 kts | 269° |
| 2026-04-29 16:17 | 29.42487 | 122.46038 | 3530 ft | 233 kts | 272° |
| 2026-04-29 16:17 | 29.42440 | 122.44139 | 3429 ft | 243 kts | 275° |
| 2026-04-29 16:18 | 29.42801 | 122.42294 | 3275 ft | 233 kts | 306° |
| 2026-04-29 16:18 | 29.43963 | 122.41110 | 3152 ft | 220 kts | 343° |
| 2026-04-29 16:18 | 29.45451 | 122.40904 | 3031 ft | 216 kts | 4° |
| 2026-04-29 16:18 | 29.46967 | 122.40950 | 2898 ft | 210 kts | 359° |
| 2026-04-29 16:19 | 29.48381 | 122.40853 | 2875 ft | 198 kts | 356° |
| 2026-04-29 16:19 | 29.49781 | 122.40713 | 2888 ft | 200 kts | 356° |
| 2026-04-29 16:19 | 29.51143 | 122.40581 | 2883 ft | 190 kts | 356° |
| 2026-04-29 16:19 | 29.52453 | 122.40453 | 2891 ft | 187 kts | 356° |
| 2026-04-29 16:20 | 29.53735 | 122.40324 | 2878 ft | 179 kts | 356° |
| 2026-04-29 16:20 | 29.54968 | 122.40198 | 2887 ft | 178 kts | 356° |
| 2026-04-29 16:20 | 29.56186 | 122.40073 | 2891 ft | 169 kts | 356° |
| 2026-04-29 16:20 | 29.57317 | 122.39958 | 2885 ft | 157 kts | 356° |
| 2026-04-29 16:21 | 29.58379 | 122.39848 | 2897 ft | 140 kts | 356° |
| 2026-04-29 16:21 | 29.59306 | 122.39753 | 2930 ft | 134 kts | 357° |
| 2026-04-29 16:21 | 29.60265 | 122.39659 | 2888 ft | 135 kts | 356° |
| 2026-04-29 16:21 | 29.61206 | 122.39559 | 2919 ft | 135 kts | 355° |
| 2026-04-29 16:22 | 29.62157 | 122.39453 | 2880 ft | 135 kts | 355° |
| 2026-04-29 16:22 | 29.63089 | 122.39352 | 2895 ft | 136 kts | 357° |
| 2026-04-29 16:22 | 29.64056 | 122.39245 | 2892 ft | 140 kts | 358° |
| 2026-04-29 16:22 | 29.65015 | 122.39136 | 2869 ft | 135 kts | 359° |
| 2026-04-29 16:23 | 29.65962 | 122.39062 | 2907 ft | 139 kts | 357° |
| 2026-04-29 16:23 | 29.66953 | 122.38929 | 2883 ft | 139 kts | 356° |
| 2026-04-29 16:23 | 29.67893 | 122.38911 | 2888 ft | 134 kts | 2° |
| 2026-04-29 16:23 | 29.68864 | 122.38847 | 2905 ft | 141 kts | 354° |
| 2026-04-29 16:24 | 29.69820 | 122.38683 | 2876 ft | 138 kts | 355° |
| 2026-04-29 16:24 | 29.70785 | 122.38590 | 2881 ft | 137 kts | 355° |
| 2026-04-29 16:24 | 29.71728 | 122.38402 | 2900 ft | 135 kts | 351° |
| 2026-04-29 16:24 | 29.72723 | 122.38302 | 2900 ft | 149 kts | 1° |
| 2026-04-29 16:25 | 29.73792 | 122.38307 | 2880 ft | 151 kts | 359° |
| 2026-04-29 16:25 | 29.74826 | 122.38169 | 2867 ft | 144 kts | 354° |
| 2026-04-29 16:25 | 29.75765 | 122.38023 | 2871 ft | 130 kts | 359° |
| 2026-04-29 16:25 | 29.76683 | 122.37968 | 2890 ft | 134 kts | 357° |
| 2026-04-29 16:26 | 29.77640 | 122.37864 | 2896 ft | 138 kts | 358° |
| 2026-04-29 16:26 | 29.78612 | 122.37744 | 2789 ft | 141 kts | 356° |
| 2026-04-29 16:26 | 29.79610 | 122.37639 | 2587 ft | 143 kts | 355° |
| 2026-04-29 16:26 | 29.80588 | 122.37539 | 2352 ft | 133 kts | 358° |
| 2026-04-29 16:27 | 29.81496 | 122.37450 | 2208 ft | 130 kts | 357° |
| 2026-04-29 16:27 | 29.82429 | 122.37360 | 2041 ft | 139 kts | 356° |
| 2026-04-29 16:27 | 29.83379 | 122.37247 | 1805 ft | 137 kts | 357° |
| 2026-04-29 16:27 | 29.84315 | 122.37211 | 1631 ft | 130 kts | 2° |
| 2026-04-29 16:28 | 29.85211 | 122.37147 | 1416 ft | 126 kts | 354° |
| 2026-04-29 16:28 | 29.86066 | 122.36968 | 1284 ft | 125 kts | 358° |
| 2026-04-29 16:28 | 29.86968 | 122.36900 | 1207 ft | 135 kts | 358° |
| 2026-04-29 16:28 | 29.87936 | 122.36783 | 886 ft | 137 kts | 358° |
| 2026-04-29 16:29 | 29.88865 | 122.36718 | 712 ft | 133 kts | 357° |
| 2026-04-29 16:29 | 29.89792 | 122.36598 | 588 ft | 131 kts | 355° |
| 2026-04-29 16:29 | 29.90714 | 122.36515 | 368 ft | 134 kts | 359° |
| 2026-04-29 16:29 | 29.91644 | 122.36414 | 158 ft | 131 kts | 353° |
| 2026-04-29 16:30 | 29.92528 | 122.36307 | 28 ft | 122 kts | 358° |
| 2026-04-29 16:30 | 29.93301 | 122.36234 | 13 ft | 86 kts | 354° |
| 2026-04-29 16:30 | 29.93686 | 122.36186 | 13 ft | 28 kts | 356° |
| 2026-04-29 16:30 | 29.93824 | 122.36154 | 13 ft | 11 kts | 262° |
| 2026-04-29 16:31 | 29.93811 | 122.36085 | 13 ft | 8 kts | 264° |
| 2026-04-29 16:31 | 29.93806 | 122.36022 | 13 ft | 7 kts | 265° |
| 2026-04-29 16:31 | 29.93802 | 122.35967 | 13 ft | 6 kts | 265° |
| 2026-04-29 16:31 | 29.93798 | 122.35918 | 13 ft | 5 kts | 263° |
| 2026-04-29 16:32 | 29.93792 | 122.35879 | 13 ft | 1 kts | 224° |
| 2026-04-29 16:32 | 29.93773 | 122.35890 | 13 ft | 4 kts | 142° |
| 2026-04-29 16:32 | 29.93748 | 122.35905 | 13 ft | 4 kts | 184° |
| 2026-04-29 16:32 | 29.93721 | 122.35902 | 13 ft | 3 kts | 184° |
| 2026-04-29 16:33 | 29.93693 | 122.35864 | 13 ft | 3 kts | 251° |
| 2026-04-29 16:33 | 29.93684 | 122.35833 | 13 ft | 3 kts | 252° |
| 2026-04-29 16:33 | 29.93683 | 122.35828 | 13 ft | 2 kts | 253° |
| 2026-04-29 16:34 | 29.93682 | 122.35824 | 13 ft | 0 kts | 253° |
| 2026-04-29 16:34 | 29.93683 | 122.35828 | 13 ft | 2 kts | 253° |
| 2026-04-29 16:34 | 29.93682 | 122.35825 | 13 ft | 0 kts | 253° |
| 2026-04-29 16:35 | 29.93681 | 122.35822 | 13 ft | 0 kts | 253° |
| 2026-04-29 16:35 | 29.93682 | 122.35826 | 13 ft | 3 kts | 254° |
| 2026-04-29 16:35 | 29.93682 | 122.35825 | 13 ft | 0 kts | 254° |